createdAt,value
2018-07-27T00:01:57.602Z,71.30
2018-07-27T00:04:26.919Z,70.94
2018-07-27T00:06:56.005Z,72.04
2018-07-27T00:09:25.344Z,71.21
2018-07-27T00:11:54.647Z,71.40
2018-07-27T00:14:23.964Z,71.28
2018-07-27T00:16:53.271Z,71.31
2018-07-27T00:19:22.605Z,71.13
2018-07-27T00:21:51.916Z,70.84
2018-07-27T00:24:20.990Z,70.28
2018-07-27T00:26:50.362Z,71.40
2018-07-27T00:29:19.679Z,71.32
2018-07-27T00:31:48.996Z,70.99
2018-07-27T00:34:18.299Z,69.52
2018-07-27T00:36:47.612Z,71.36
2018-07-27T00:39:16.685Z,70.96
2018-07-27T00:41:46.017Z,70.93
2018-07-27T00:44:15.345Z,71.53
2018-07-27T00:46:44.642Z,71.33
2018-07-27T00:49:13.955Z,72.92
2018-07-27T00:51:43.273Z,72.22
2018-07-27T00:54:12.596Z,72.80
2018-07-27T00:56:41.886Z,73.09
2018-07-27T00:59:11.225Z,73.18
2018-07-27T01:01:40.531Z,72.80
2018-07-27T01:04:09.927Z,73.24
2018-07-27T01:06:39.318Z,72.81
2018-07-27T01:09:10.474Z,73.83
2018-07-27T01:11:39.878Z,73.08
2018-07-27T01:14:09.289Z,73.13
2018-07-27T01:16:38.661Z,71.64
2018-07-27T01:19:07.794Z,71.95
2018-07-27T01:21:37.160Z,71.58
2018-07-27T01:24:06.328Z,71.70
2018-07-27T01:26:35.693Z,71.93
2018-07-27T01:29:05.087Z,72.43
2018-07-27T01:31:34.454Z,71.40
2018-07-27T01:34:03.845Z,71.02
2018-07-27T01:36:33.213Z,69.80
2018-07-27T01:39:02.595Z,69.08
2018-07-27T01:41:32.787Z,69.00
2018-07-27T01:44:01.907Z,68.74
2018-07-27T01:46:31.278Z,68.29
2018-07-27T01:49:00.409Z,68.85
2018-07-27T01:51:29.780Z,69.27
2018-07-27T01:53:58.909Z,69.60
2018-07-27T01:56:28.284Z,70.26
2018-07-27T01:58:57.662Z,70.16
2018-07-27T02:01:27.039Z,71.07
2018-07-27T02:03:56.436Z,70.97
2018-07-27T02:06:25.861Z,71.40
2018-07-27T02:08:55.329Z,71.80
2018-07-27T02:11:24.718Z,72.06
2018-07-27T02:13:54.151Z,72.44
2018-07-27T02:16:23.548Z,73.21
2018-07-27T02:18:52.929Z,73.26
2018-07-27T02:21:22.239Z,73.87
2018-07-27T02:23:51.547Z,73.93
2018-07-27T02:26:20.854Z,74.63
2018-07-27T02:28:50.176Z,74.47
2018-07-27T02:31:19.487Z,73.40
2018-07-27T02:33:48.818Z,74.56
2018-07-27T02:36:17.872Z,74.22
2018-07-27T02:38:47.204Z,74.14
2018-07-27T02:41:16.575Z,73.77
2018-07-27T02:43:45.866Z,73.18
2018-07-27T02:46:15.215Z,72.65
2018-07-27T02:48:44.528Z,73.36
2018-07-27T02:51:13.887Z,73.72
2018-07-27T02:53:43.179Z,73.35
2018-07-27T02:56:12.548Z,73.20
2018-07-27T02:58:41.997Z,73.45
2018-07-27T03:01:11.332Z,74.27
2018-07-27T03:03:40.684Z,75.18
2018-07-27T03:06:10.033Z,75.21
2018-07-27T03:08:39.375Z,75.05
2018-07-27T03:11:08.710Z,76.05
2018-07-27T03:13:38.059Z,75.88
2018-07-27T03:16:07.409Z,76.22
2018-07-27T03:18:36.531Z,76.37
2018-07-27T03:21:05.871Z,76.54
2018-07-27T03:23:35.219Z,76.65
2018-07-27T03:26:04.573Z,76.44
2018-07-27T03:28:33.926Z,76.66
2018-07-27T03:31:03.278Z,76.71
2018-07-27T03:33:32.623Z,77.92
2018-07-27T03:36:01.973Z,78.02
2018-07-27T03:38:31.320Z,77.02
2018-07-27T03:41:00.667Z,77.21
2018-07-27T03:43:30.012Z,77.83
2018-07-27T03:45:59.376Z,77.81
2018-07-27T03:48:28.716Z,77.24
2018-07-27T03:50:58.065Z,77.40
2018-07-27T03:53:27.391Z,76.88
2018-07-27T03:55:56.744Z,76.68
2018-07-27T03:58:26.139Z,76.79
2018-07-27T04:00:55.460Z,77.03
2018-07-27T04:03:24.787Z,76.57
2018-07-27T04:05:54.217Z,76.50
2018-07-27T04:08:23.523Z,76.87
2018-07-27T04:10:52.896Z,76.56
2018-07-27T04:13:22.206Z,77.08
2018-07-27T04:15:51.537Z,77.10
2018-07-27T04:18:20.850Z,77.85
2018-07-27T04:20:50.217Z,77.66
2018-07-27T04:23:19.521Z,78.36
2018-07-27T04:25:48.839Z,77.56
2018-07-27T04:28:18.163Z,77.50
2018-07-27T04:30:47.475Z,76.82
2018-07-27T04:33:16.804Z,77.01
2018-07-27T04:35:46.197Z,77.91
2018-07-27T04:38:15.453Z,77.94
2018-07-27T04:40:44.776Z,77.21
2018-07-27T04:43:14.083Z,77.21
2018-07-27T04:45:43.431Z,76.93
2018-07-27T04:48:12.750Z,77.50
2018-07-27T04:50:42.092Z,77.02
2018-07-27T04:53:11.556Z,76.83
2018-07-27T04:55:40.881Z,77.57
2018-07-27T04:58:10.192Z,78.30
2018-07-27T05:00:39.540Z,78.14
2018-07-27T05:03:08.892Z,76.82
2018-07-27T05:05:38.334Z,75.92
2018-07-27T05:08:08.660Z,75.22
2018-07-27T05:10:43.262Z,74.77
2018-07-27T05:13:12.608Z,75.15
2018-07-27T05:15:41.975Z,75.17
2018-07-27T05:18:11.148Z,75.76
2018-07-27T05:20:40.460Z,77.92
2018-07-27T05:23:09.826Z,75.48
2018-07-27T05:25:39.172Z,75.75
2018-07-27T05:28:09.510Z,76.58
2018-07-27T05:30:38.857Z,76.77
2018-07-27T05:33:08.220Z,77.51
2018-07-27T05:35:37.571Z,77.29
2018-07-27T05:38:06.921Z,76.76
2018-07-27T05:40:36.284Z,74.98
2018-07-27T05:43:05.656Z,74.89
2018-07-27T05:45:35.021Z,74.29
2018-07-27T05:48:04.381Z,73.40
2018-07-27T05:50:33.727Z,73.68
2018-07-27T05:53:03.080Z,73.42
2018-07-27T05:55:32.436Z,73.38
2018-07-27T05:58:01.797Z,72.52
2018-07-27T06:00:31.148Z,71.95
2018-07-27T06:03:00.617Z,73.31
2018-07-27T06:05:29.880Z,72.10
2018-07-27T06:07:59.241Z,71.26
2018-07-27T06:10:28.596Z,71.75
2018-07-27T06:12:57.940Z,71.33
2018-07-27T06:15:27.300Z,70.12
2018-07-27T06:17:56.727Z,69.01
2018-07-27T06:20:26.077Z,69.81
2018-07-27T06:22:55.424Z,69.89
2018-07-27T06:25:24.776Z,70.17
2018-07-27T06:27:54.128Z,68.57
2018-07-27T06:30:23.227Z,68.02
2018-07-27T06:32:52.322Z,67.57
2018-07-27T06:35:21.420Z,66.95
2018-07-27T06:37:50.531Z,67.76
2018-07-27T06:40:19.894Z,66.87
2018-07-27T06:42:49.271Z,65.98
2018-07-27T06:45:18.645Z,66.47
2018-07-27T06:47:47.773Z,66.37
2018-07-27T06:50:17.126Z,66.03
2018-07-27T06:52:46.245Z,65.99
2018-07-27T06:55:15.599Z,65.83
2018-07-27T06:57:44.961Z,65.51
2018-07-27T07:00:14.325Z,65.45
2018-07-27T07:02:43.474Z,64.79
2018-07-27T07:05:12.820Z,65.46
2018-07-27T07:07:42.183Z,65.14
2018-07-27T07:10:11.530Z,64.38
2018-07-27T07:12:40.892Z,64.34
2018-07-27T07:15:10.860Z,64.17
2018-07-27T07:17:40.220Z,64.06
2018-07-27T07:20:09.708Z,64.73
2018-07-27T07:22:39.276Z,64.03
2018-07-27T07:25:08.654Z,63.54
2018-07-27T07:27:37.985Z,63.37
2018-07-27T07:30:07.492Z,63.73
2018-07-27T07:32:36.856Z,62.91
2018-07-27T07:35:06.045Z,63.48
2018-07-27T07:37:35.388Z,62.19
2018-07-27T07:40:05.096Z,62.00
2018-07-27T07:42:34.442Z,61.26
2018-07-27T07:45:03.812Z,61.59
2018-07-27T07:47:33.138Z,61.57
2018-07-27T07:50:02.482Z,60.98
2018-07-27T07:52:31.828Z,60.70
2018-07-27T07:55:01.174Z,61.34
2018-07-27T07:57:30.526Z,61.02
2018-07-27T07:59:59.881Z,60.28
2018-07-27T08:02:29.251Z,61.52
2018-07-27T08:04:58.639Z,59.45
2018-07-27T08:07:27.992Z,60.59
2018-07-27T08:09:57.360Z,59.13
2018-07-27T08:12:26.466Z,59.88
2018-07-27T08:14:55.573Z,59.18
2018-07-27T08:17:24.989Z,58.77
2018-07-27T08:19:54.273Z,58.70
2018-07-27T08:22:23.636Z,59.83
2018-07-27T08:24:53.033Z,58.89
2018-07-27T08:27:22.385Z,59.06
2018-07-27T08:29:51.740Z,57.97
2018-07-27T08:32:21.096Z,57.29
2018-07-27T08:34:50.436Z,56.45
2018-07-27T08:37:19.796Z,55.54
2018-07-27T08:39:49.219Z,54.65
2018-07-27T08:42:18.492Z,55.81
2018-07-27T08:44:47.828Z,55.00
2018-07-27T08:47:17.202Z,54.18
2018-07-27T08:49:46.283Z,54.22
2018-07-27T08:52:15.635Z,53.86
2018-07-27T08:54:44.986Z,54.37
2018-07-27T08:57:14.364Z,54.57
2018-07-27T08:59:43.704Z,54.77
2018-07-27T09:02:13.071Z,54.45
2018-07-27T09:04:42.176Z,52.34
2018-07-27T09:07:11.519Z,51.54
2018-07-27T09:09:40.873Z,51.71
2018-07-27T09:12:09.981Z,52.07
2018-07-27T09:14:39.363Z,52.29
2018-07-27T09:17:08.720Z,52.07
2018-07-27T09:19:38.068Z,51.82
2018-07-27T09:22:08.549Z,51.87
2018-07-27T09:24:37.978Z,49.89
2018-07-27T09:27:07.270Z,51.48
2018-07-27T09:29:36.663Z,51.32
2018-07-27T09:32:06.006Z,52.21
2018-07-27T09:34:35.121Z,51.50
2018-07-27T09:37:04.465Z,50.48
2018-07-27T09:39:33.826Z,49.27
2018-07-27T09:42:03.177Z,47.72
2018-07-27T09:44:32.532Z,48.85
2018-07-27T09:47:01.863Z,49.75
2018-07-27T09:49:31.221Z,48.74
2018-07-27T09:52:00.565Z,48.99
2018-07-27T09:54:29.924Z,47.62
2018-07-27T09:56:59.271Z,48.09
2018-07-27T09:59:28.620Z,44.70
2018-07-27T10:01:57.984Z,46.90
2018-07-27T10:04:27.434Z,46.52
2018-07-27T10:06:56.779Z,46.44
2018-07-27T10:09:26.132Z,45.77
2018-07-27T10:11:55.474Z,44.70
2018-07-27T10:14:24.846Z,44.82
2018-07-27T10:16:54.190Z,44.12
2018-07-27T10:19:23.555Z,44.44
2018-07-27T10:21:52.921Z,44.14
2018-07-27T10:24:22.033Z,43.75
2018-07-27T10:26:51.376Z,44.64
2018-07-27T10:29:20.752Z,43.83
2018-07-27T10:31:50.104Z,43.95
2018-07-27T10:34:19.468Z,42.55
2018-07-27T10:36:48.813Z,43.29
2018-07-27T10:39:18.188Z,45.65
2018-07-27T10:41:47.567Z,43.94
2018-07-27T10:44:16.917Z,42.23
2018-07-27T10:46:46.021Z,43.19
2018-07-27T10:49:15.382Z,43.38
2018-07-27T10:51:45.093Z,43.69
2018-07-27T10:54:14.413Z,44.48
2018-07-27T10:56:43.764Z,43.82
2018-07-27T10:59:13.120Z,43.13
2018-07-27T11:01:42.480Z,42.01
2018-07-27T11:04:11.819Z,41.53
2018-07-27T11:06:47.474Z,42.16
2018-07-27T11:09:16.819Z,43.28
2018-07-27T11:11:46.176Z,41.00
2018-07-27T11:14:15.616Z,42.13
2018-07-27T11:16:44.981Z,42.05
2018-07-27T11:19:14.333Z,42.09
2018-07-27T11:21:43.673Z,42.11
2018-07-27T11:24:13.028Z,42.06
2018-07-27T11:26:42.381Z,42.56
2018-07-27T11:29:11.736Z,40.78
2018-07-27T11:31:41.093Z,41.45
2018-07-27T11:34:10.428Z,41.55
2018-07-27T11:36:39.805Z,38.84
2018-07-27T11:39:10.860Z,40.88
2018-07-27T11:41:40.262Z,39.01
2018-07-27T11:44:09.620Z,40.04
2018-07-27T11:46:38.989Z,39.63
2018-07-27T11:49:08.346Z,37.01
2018-07-27T11:51:37.459Z,34.07
2018-07-27T11:54:06.813Z,36.02
2018-07-27T11:56:36.157Z,38.83
2018-07-27T11:59:05.589Z,38.53
2018-07-27T12:01:34.950Z,39.51
2018-07-27T12:04:04.055Z,39.52
2018-07-27T12:06:33.405Z,38.27
2018-07-27T12:09:02.760Z,48.81
2018-07-27T12:11:32.121Z,38.59
2018-07-27T12:14:01.487Z,36.73
2018-07-27T12:16:30.813Z,38.11
2018-07-27T12:19:00.158Z,37.42
2018-07-27T12:21:29.677Z,38.08
2018-07-27T12:23:59.176Z,36.97
2018-07-27T12:26:28.537Z,37.00
2018-07-27T12:28:57.886Z,36.83
2018-07-27T12:31:27.246Z,38.29
2018-07-27T12:33:56.644Z,37.78
2018-07-27T12:36:25.982Z,36.17
2018-07-27T12:38:55.379Z,34.68
2018-07-27T12:41:24.708Z,36.56
2018-07-27T12:43:54.051Z,34.80
2018-07-27T12:46:23.397Z,33.81
2018-07-27T12:48:52.764Z,30.78
2018-07-27T12:51:21.915Z,32.68
2018-07-27T12:53:51.301Z,31.85
2018-07-27T12:56:20.624Z,32.33
2018-07-27T12:58:49.974Z,31.16
2018-07-27T13:01:19.076Z,29.90
2018-07-27T13:03:48.429Z,32.39
2018-07-27T13:06:17.780Z,30.57
2018-07-27T13:08:47.153Z,25.35
2018-07-27T13:11:16.618Z,26.48
2018-07-27T13:13:45.993Z,26.37
2018-07-27T13:16:15.420Z,28.30
2018-07-27T13:18:44.762Z,26.77
2018-07-27T13:21:13.851Z,30.10
2018-07-27T13:23:59.395Z,31.09
2018-07-27T13:26:29.779Z,30.75
2018-07-27T13:28:59.215Z,31.62
2018-07-27T13:31:55.030Z,31.02
2018-07-27T13:34:42.647Z,29.60
2018-07-27T13:40:09.112Z,31.17
2018-07-27T13:42:38.480Z,30.00
2018-07-27T13:45:07.601Z,28.69
2018-07-27T13:47:36.956Z,34.42
2018-07-27T13:50:06.333Z,28.99
2018-07-27T13:52:35.679Z,33.57
2018-07-27T13:55:04.771Z,30.46
2018-07-27T13:57:34.148Z,32.10
2018-07-27T14:00:03.479Z,33.17
2018-07-27T14:02:32.695Z,34.53
2018-07-27T14:05:02.044Z,36.77
2018-07-27T14:07:31.475Z,36.29
2018-07-27T14:10:00.800Z,34.54
2018-07-27T14:12:30.184Z,32.34
2018-07-27T14:14:59.292Z,32.14
2018-07-27T14:17:28.644Z,34.46
2018-07-27T14:19:57.993Z,35.07
2018-07-27T14:22:27.380Z,35.35
2018-07-27T14:24:56.764Z,35.94
2018-07-27T14:27:26.151Z,36.17
2018-07-27T14:29:55.504Z,37.33
2018-07-27T14:32:24.851Z,36.51
2018-07-27T14:34:54.204Z,37.13
2018-07-27T14:37:23.564Z,37.91
2018-07-27T14:39:52.950Z,37.81
2018-07-27T14:42:22.283Z,37.23
2018-07-27T14:44:51.395Z,38.25
2018-07-27T14:47:20.780Z,39.14
2018-07-27T14:49:49.879Z,40.73
2018-07-27T14:52:19.117Z,40.86
2018-07-27T14:54:48.067Z,40.36
2018-07-27T14:57:17.166Z,39.44
2018-07-27T14:59:46.269Z,40.29
2018-07-27T15:02:15.627Z,41.06
2018-07-27T15:04:46.052Z,41.89
2018-07-27T15:07:15.351Z,43.38
2018-07-27T15:09:44.711Z,42.48
2018-07-27T15:12:14.074Z,41.30
2018-07-27T15:14:43.428Z,42.28
2018-07-27T15:17:12.788Z,39.79
2018-07-27T15:19:41.895Z,39.46
2018-07-27T15:22:10.987Z,38.92
2018-07-27T15:24:40.093Z,38.80
2018-07-27T15:27:09.471Z,38.21
2018-07-27T15:29:38.820Z,36.16
2018-07-27T15:32:08.756Z,36.26
2018-07-27T15:34:38.111Z,35.01
2018-07-27T15:37:07.467Z,34.27
2018-07-27T15:39:36.825Z,35.46
2018-07-27T15:42:06.179Z,35.65
2018-07-27T15:44:35.541Z,36.25
2018-07-27T15:47:04.920Z,34.22
2018-07-27T15:49:34.265Z,35.37
2018-07-27T15:52:03.627Z,35.53
2018-07-27T15:54:32.984Z,35.57
2018-07-27T15:57:02.340Z,36.96
2018-07-27T15:59:31.691Z,36.37
2018-07-27T16:02:01.079Z,34.56
2018-07-27T16:04:30.428Z,36.97
2018-07-27T16:06:59.792Z,36.98
2018-07-27T16:09:29.167Z,36.62
2018-07-27T16:11:58.529Z,37.73
2018-07-27T16:14:27.904Z,37.97
2018-07-27T16:16:57.267Z,38.87
2018-07-27T16:19:28.600Z,38.76
2018-07-27T16:21:58.895Z,38.06
2018-07-27T16:24:28.291Z,38.03
2018-07-27T16:26:57.426Z,37.89
2018-07-27T16:29:27.431Z,37.09
2018-07-27T16:31:57.150Z,36.95
2018-07-27T16:34:26.540Z,37.00
2018-07-27T16:36:55.933Z,37.28
2018-07-27T16:39:25.291Z,38.64
2018-07-27T16:41:54.648Z,38.09
2018-07-27T16:44:24.013Z,38.11
2018-07-27T16:46:53.375Z,38.21
2018-07-27T16:49:22.723Z,37.48
2018-07-27T16:51:52.094Z,35.50
2018-07-27T16:54:21.443Z,35.92
2018-07-27T16:56:50.796Z,35.84
2018-07-27T16:59:20.144Z,35.59
2018-07-27T17:01:49.503Z,35.29
2018-07-27T17:04:18.956Z,33.90
2018-07-27T17:06:48.315Z,34.84
2018-07-27T17:09:17.720Z,35.08
2018-07-27T17:11:47.037Z,35.47
2018-07-27T17:14:16.376Z,35.73
2018-07-27T17:16:45.728Z,35.40
2018-07-27T17:19:15.113Z,35.93
2018-07-27T17:21:44.469Z,36.02
2018-07-27T17:24:13.811Z,36.14
2018-07-27T17:26:43.168Z,36.05
2018-07-27T17:29:12.521Z,36.46
2018-07-27T17:31:41.875Z,37.32
2018-07-27T17:34:11.225Z,37.06
2018-07-27T17:36:40.590Z,36.97
2018-07-27T17:39:11.326Z,38.20
2018-07-27T17:41:41.077Z,38.70
2018-07-27T17:44:11.066Z,39.13
2018-07-27T17:46:40.461Z,40.35
2018-07-27T17:49:10.368Z,40.57
2018-07-27T17:51:39.775Z,41.00
2018-07-27T17:54:09.913Z,41.42
2018-07-27T17:56:39.302Z,41.72
2018-07-27T17:59:08.681Z,41.50
2018-07-27T18:01:38.137Z,41.52
2018-07-27T18:04:08.778Z,42.04
2018-07-27T18:06:38.184Z,42.46
2018-07-27T18:09:11.440Z,42.93
2018-07-27T18:11:41.120Z,42.53
2018-07-27T18:14:10.834Z,42.97
2018-07-27T18:16:40.236Z,43.93
2018-07-27T18:19:09.654Z,43.76
2018-07-27T18:21:39.220Z,43.01
2018-07-27T18:24:09.688Z,43.78
2018-07-27T18:26:39.075Z,44.37
2018-07-27T18:29:08.517Z,43.78
2018-07-27T18:31:37.920Z,44.14
2018-07-27T18:34:07.346Z,44.99
2018-07-27T18:36:36.902Z,44.71
2018-07-27T18:39:09.968Z,45.39
2018-07-27T18:41:39.364Z,45.89
2018-07-27T18:44:09.082Z,46.52
2018-07-27T18:46:39.612Z,47.08
2018-07-27T18:49:09.326Z,47.80
2018-07-27T18:51:38.838Z,47.34
2018-07-27T18:54:09.221Z,48.01
2018-07-27T18:56:38.702Z,48.45
2018-07-27T18:59:08.119Z,48.91
2018-07-27T19:01:37.297Z,49.17
2018-07-27T19:04:06.710Z,49.03
2018-07-27T19:06:36.095Z,49.60
2018-07-27T19:09:09.892Z,49.64
2018-07-27T19:11:39.275Z,49.30
2018-07-27T19:14:09.392Z,49.41
2018-07-27T19:16:38.792Z,49.01
2018-07-27T19:19:08.501Z,49.53
2018-07-27T19:21:37.872Z,50.21
2018-07-27T19:24:07.557Z,50.43
2018-07-27T19:26:36.991Z,49.72
2018-07-27T19:29:06.229Z,51.92
2018-07-27T19:31:35.608Z,51.24
2018-07-27T19:34:05.019Z,50.13
2018-07-27T19:36:34.408Z,49.63
2018-07-27T19:39:03.992Z,49.92
2018-07-27T19:41:33.121Z,50.39
2018-07-27T19:44:02.574Z,51.33
2018-07-27T19:46:31.884Z,51.98
2018-07-27T19:49:01.017Z,51.96
2018-07-27T19:51:30.408Z,52.62
2018-07-27T19:53:59.807Z,52.48
2018-07-27T19:56:29.196Z,52.86
2018-07-27T19:58:58.624Z,52.97
2018-07-27T20:01:27.996Z,53.07
2018-07-27T20:03:57.348Z,53.20
2018-07-27T20:06:26.934Z,53.93
2018-07-27T20:08:56.731Z,54.11
2018-07-27T20:11:26.148Z,55.26
2018-07-27T20:13:55.521Z,56.14
2018-07-27T20:16:24.638Z,56.48
2018-07-27T20:18:54.028Z,55.93
2018-07-27T20:21:23.443Z,55.98
2018-07-27T20:23:52.759Z,55.28
2018-07-27T20:26:22.158Z,55.56
2018-07-27T20:28:51.560Z,55.04
2018-07-27T20:31:20.949Z,54.68
2018-07-27T20:33:50.321Z,54.92
2018-07-27T20:36:19.721Z,55.36
2018-07-27T20:38:49.109Z,54.86
2018-07-27T20:41:18.522Z,55.53
2018-07-27T20:43:47.942Z,56.00
2018-07-27T20:46:17.389Z,56.54
2018-07-27T20:48:46.760Z,57.16
2018-07-27T20:51:16.177Z,57.40
2018-07-27T20:53:45.586Z,57.50
2018-07-27T20:56:15.059Z,57.72
2018-07-27T20:58:44.175Z,57.34
2018-07-27T21:01:13.581Z,56.98
2018-07-27T21:03:43.028Z,57.66
2018-07-27T21:06:12.448Z,58.07
2018-07-27T21:08:41.569Z,57.66
2018-07-27T21:11:10.968Z,58.14
2018-07-27T21:13:40.396Z,59.18
2018-07-27T21:16:09.784Z,61.19
2018-07-27T21:18:39.177Z,61.11
2018-07-27T21:21:08.599Z,60.17
2018-07-27T21:23:37.982Z,60.24
2018-07-27T21:26:07.380Z,60.02
2018-07-27T21:28:36.508Z,60.41
2018-07-27T21:31:06.019Z,60.68
2018-07-27T21:33:35.404Z,61.30
2018-07-27T21:36:04.817Z,62.39
2018-07-27T21:38:34.240Z,62.88
2018-07-27T21:41:03.730Z,63.59
2018-07-27T21:43:33.109Z,63.93
2018-07-27T21:46:02.573Z,62.93
2018-07-27T21:48:31.892Z,63.12
2018-07-27T21:51:01.294Z,63.21
2018-07-27T21:53:30.390Z,62.33
2018-07-27T21:55:59.754Z,62.29
2018-07-27T21:58:29.128Z,62.50
2018-07-27T22:00:58.488Z,63.86
2018-07-27T22:03:27.856Z,63.10
2018-07-27T22:05:57.213Z,63.68
2018-07-27T22:08:26.548Z,64.30
2018-07-27T22:10:55.900Z,63.72
2018-07-27T22:13:25.337Z,64.50
2018-07-27T22:15:54.394Z,64.41
2018-07-27T22:18:23.496Z,64.51
2018-07-27T22:20:52.867Z,65.12
2018-07-27T22:23:22.228Z,65.36
2018-07-27T22:25:51.594Z,65.44
2018-07-27T22:28:20.960Z,65.94
2018-07-27T22:30:50.322Z,66.63
2018-07-27T22:33:19.676Z,68.37
2018-07-27T22:35:48.784Z,68.21
2018-07-27T22:38:18.153Z,68.54
2018-07-27T22:40:47.531Z,67.53
2018-07-27T22:43:16.870Z,66.77
2018-07-27T22:45:46.222Z,67.59
2018-07-27T22:48:15.581Z,67.33
2018-07-27T22:50:44.676Z,67.53
2018-07-27T22:53:14.048Z,68.18
2018-07-27T22:55:43.392Z,67.63
2018-07-27T22:58:12.754Z,68.69
2018-07-27T23:00:42.196Z,68.68
2018-07-27T23:03:11.568Z,69.19
2018-07-27T23:05:40.908Z,69.26
2018-07-27T23:08:10.361Z,69.27
2018-07-27T23:10:39.411Z,69.60
2018-07-27T23:13:08.515Z,69.23
2018-07-27T23:15:37.867Z,69.78
2018-07-27T23:18:07.282Z,69.32
2018-07-27T23:20:36.389Z,70.35
2018-07-27T23:23:05.839Z,70.23
2018-07-27T23:25:35.188Z,70.62
2018-07-27T23:28:04.313Z,70.88
2018-07-27T23:30:33.647Z,70.70
2018-07-27T23:33:03.004Z,70.92
2018-07-27T23:35:32.347Z,70.64
2018-07-27T23:38:01.696Z,70.33
2018-07-27T23:40:31.067Z,69.75
2018-07-27T23:43:00.433Z,70.28
2018-07-27T23:45:29.782Z,70.78
2018-07-27T23:47:59.132Z,70.75
2018-07-27T23:50:28.491Z,70.56
2018-07-27T23:52:57.602Z,71.37
2018-07-27T23:55:27.288Z,71.85
2018-07-27T23:57:56.933Z,71.60
